Time,TemperatureF,DewpointF,PressureIn,WindDirection,WindDirectionDegrees,WindSpeedMPH,WindSpeedGustMPH,Humidity,HourlyPrecipIn,Conditions,Clouds,dailyrainin,SolarRadiationWatts/m^2,SoftwareType,DateUTC
2013-08-31 00:01:00,70.0,67.6,29.91,SSW,213,2.3,2.3,92,0.00,,BKN,0.00,0.0,WeatherDisplay:10.37,2013-08-31 04:01:00,
2013-08-31 00:02:00,69.9,67.5,29.91,SW,215,2.3,2.3,92,0.00,,BKN,0.00,0.0,WeatherDisplay:10.37,2013-08-31 04:02:00,
2013-08-31 00:07:00,69.8,67.4,29.91,SSW,204,3.4,3.4,92,0.00,,BKN,0.00,0.0,WeatherDisplay:10.37,2013-08-31 04:07:00,
2013-08-31 00:12:00,69.7,67.6,29.91,SSW,199,3.4,3.4,93,0.00,,BKN,0.00,0.0,WeatherDisplay:10.37,2013-08-31 04:12:00,
2013-08-31 00:17:00,69.4,67.3,29.91,SSW,195,3.4,3.4,93,0.00,,BKN,0.00,0.0,WeatherDisplay:10.37,2013-08-31 04:17:00,
2013-08-31 00:22:00,69.2,67.1,29.91,South,183,2.3,2.3,93,0.00,,BKN,0.00,0.0,WeatherDisplay:10.37,2013-08-31 04:22:00,
2013-08-31 00:27:00,69.0,67.2,29.90,South,182,3.4,3.4,94,0.00,,BKN,0.00,0.0,WeatherDisplay:10.37,2013-08-31 04:27:00,
2013-08-31 00:32:00,68.9,67.1,29.90,South,180,3.4,3.4,94,0.00,,BKN,0.00,0.0,WeatherDisplay:10.37,2013-08-31 04:32:00,
2013-08-31 00:37:00,68.9,67.1,29.90,SSW,199,3.4,3.4,94,0.00,,BKN,0.00,0.0,WeatherDisplay:10.37,2013-08-31 04:37:00,
2013-08-31 00:42:00,68.9,67.1,29.90,SSW,199,3.4,3.4,94,0.00,,BKN,0.00,0.0,WeatherDisplay:10.37,2013-08-31 04:42:00,
2013-08-31 00:47:00,68.9,67.1,29.89,SSW,201,3.4,3.4,94,0.00,,BKN,0.00,0.0,WeatherDisplay:10.37,2013-08-31 04:47:00,
2013-08-31 00:52:00,68.8,67.0,29.89,SSW,205,3.4,3.4,94,0.00,,BKN,0.00,0.0,WeatherDisplay:10.37,2013-08-31 04:52:00,
2013-08-31 00:57:00,68.6,66.8,29.89,West,262,3.4,3.4,94,0.00,,BKN,0.00,0.0,WeatherDisplay:10.37,2013-08-31 04:57:00,
2013-08-31 01:02:00,68.5,66.7,29.89,SSW,210,3.4,3.4,94,0.00,,BKN,0.00,0.0,WeatherDisplay:10.37,2013-08-31 05:02:00,
2013-08-31 01:07:00,68.4,66.9,29.89,SSW,207,3.4,3.4,95,0.00,,BKN,0.00,0.0,WeatherDisplay:10.37,2013-08-31 05:07:00,
2013-08-31 01:12:00,68.2,66.7,29.89,SSW,208,3.4,3.4,95,0.00,,BKN,0.00,0.0,WeatherDisplay:10.37,2013-08-31 05:12:00,
2013-08-31 01:17:00,68.1,66.6,29.89,SSW,209,3.4,3.4,95,0.00,,BKN,0.00,0.0,WeatherDisplay:10.37,2013-08-31 05:17:00,
2013-08-31 01:22:00,67.9,66.4,29.88,SSW,195,3.4,3.4,95,0.00,,BKN,0.00,0.0,WeatherDisplay:10.37,2013-08-31 05:22:00,
2013-08-31 01:27:00,67.9,66.4,29.88,SSW,212,2.3,2.3,95,0.00,,BKN,0.00,0.0,WeatherDisplay:10.37,2013-08-31 05:27:00,
2013-08-31 01:32:00,67.7,66.2,29.88,SSW,198,3.4,3.4,95,0.00,,BKN,0.00,0.0,WeatherDisplay:10.37,2013-08-31 05:32:00,
2013-08-31 01:37:00,67.6,66.4,29.88,West,270,3.4,3.4,96,0.00,,BKN,0.00,0.0,WeatherDisplay:10.37,2013-08-31 05:37:00,
2013-08-31 01:42:00,67.5,66.3,29.88,WSW,243,2.3,2.3,96,0.00,,BKN,0.00,0.0,WeatherDisplay:10.37,2013-08-31 05:42:00,
2013-08-31 01:47:00,67.4,66.2,29.88,WSW,243,1.1,1.1,96,0.00,,BKN,0.00,0.0,WeatherDisplay:10.37,2013-08-31 05:47:00,
2013-08-31 01:52:00,67.4,66.2,29.87,WSW,243,2.3,2.3,96,0.00,,BKN,0.00,0.0,WeatherDisplay:10.37,2013-08-31 05:52:00,
2013-08-31 01:57:00,67.4,66.2,29.87,WSW,243,2.3,2.3,96,0.00,,BKN,0.00,0.0,WeatherDisplay:10.37,2013-08-31 05:57:00,
2013-08-31 02:02:00,67.5,66.3,29.87,WSW,243,2.3,2.3,96,0.00,,BKN,0.00,0.0,WeatherDisplay:10.37,2013-08-31 06:02:00,
2013-08-31 02:07:00,67.5,66.3,29.87,WSW,239,2.3,2.3,96,0.00,,BKN,0.00,0.0,WeatherDisplay:10.37,2013-08-31 06:07:00,
2013-08-31 02:12:00,67.6,66.4,29.87,SSW,212,2.3,2.3,96,0.00,,BKN,0.00,0.0,WeatherDisplay:10.37,2013-08-31 06:12:00,
2013-08-31 02:17:00,67.6,66.4,29.87,SSW,211,1.1,1.1,96,0.00,,BKN,0.00,0.0,WeatherDisplay:10.37,2013-08-31 06:17:00,
2013-08-31 02:22:00,67.4,66.2,29.87,SSW,212,2.3,2.3,96,0.00,,BKN,0.00,0.0,WeatherDisplay:10.37,2013-08-31 06:22:00,
2013-08-31 02:27:00,67.4,66.2,29.87,SW,232,2.3,2.3,96,0.00,,BKN,0.00,0.0,WeatherDisplay:10.37,2013-08-31 06:27:00,
2013-08-31 02:32:00,67.5,66.3,29.87,SW,232,1.1,1.1,96,0.00,,BKN,0.00,0.0,WeatherDisplay:10.37,2013-08-31 06:32:00,
2013-08-31 02:37:00,67.6,66.4,29.87,WNW,285,2.3,2.3,96,0.00,,BKN,0.00,0.0,WeatherDisplay:10.37,2013-08-31 06:37:00,
2013-08-31 02:42:00,67.7,66.5,29.86,WNW,285,2.3,2.3,96,0.00,,BKN,0.00,0.0,WeatherDisplay:10.37,2013-08-31 06:42:00,
2013-08-31 02:47:00,67.9,66.7,29.86,WNW,283,2.3,2.3,96,0.00,,BKN,0.00,0.0,WeatherDisplay:10.37,2013-08-31 06:47:00,
2013-08-31 02:52:00,68.0,66.8,29.86,WNW,283,2.3,2.3,96,0.00,,BKN,0.00,0.0,WeatherDisplay:10.37,2013-08-31 06:52:00,
2013-08-31 02:57:00,68.1,66.9,29.86,WNW,283,1.1,1.1,96,0.00,,BKN,0.00,0.0,WeatherDisplay:10.37,2013-08-31 06:57:00,
2013-08-31 03:02:00,68.1,66.6,29.87,WNW,283,1.0,1.0,95,0.00,,BKN,0.00,0.0,WeatherDisplay:10.37,2013-08-31 07:02:00,
2013-08-31 03:07:00,68.1,66.6,29.86,WNW,283,1.1,1.1,95,0.00,,BKN,0.00,0.0,WeatherDisplay:10.37,2013-08-31 07:07:00,
2013-08-31 03:12:00,68.0,66.5,29.86,WNW,283,2.3,2.3,95,0.00,,BKN,0.00,0.0,WeatherDisplay:10.37,2013-08-31 07:12:00,
2013-08-31 03:17:00,67.9,66.4,29.86,WNW,283,2.3,2.3,95,0.00,,BKN,0.00,0.0,WeatherDisplay:10.37,2013-08-31 07:17:00,
2013-08-31 03:22:00,67.9,66.4,29.86,West,277,1.1,1.1,95,0.00,,BKN,0.00,0.0,WeatherDisplay:10.37,2013-08-31 07:22:00,
2013-08-31 03:27:00,67.9,66.4,29.87,WNW,283,3.4,3.4,95,0.00,,BKN,0.00,0.0,WeatherDisplay:10.37,2013-08-31 07:27:00,
2013-08-31 03:32:00,68.2,66.7,29.87,WNW,282,3.4,3.4,95,0.00,,BKN,0.00,0.0,WeatherDisplay:10.37,2013-08-31 07:32:00,
2013-08-31 03:37:00,68.3,66.8,29.87,WNW,282,0.0,0.0,95,0.00,,BKN,0.00,0.0,WeatherDisplay:10.37,2013-08-31 07:37:00,
2013-08-31 03:42:00,68.3,66.5,29.87,WNW,282,3.4,3.4,94,0.00,,BKN,0.00,0.0,WeatherDisplay:10.37,2013-08-31 07:42:00,
2013-08-31 03:47:00,68.3,66.5,29.87,WNW,282,3.4,3.4,94,0.00,,BKN,0.00,0.0,WeatherDisplay:10.37,2013-08-31 07:47:00,
2013-08-31 03:52:00,68.3,66.5,29.87,WNW,282,0.0,0.0,94,0.00,,BKN,0.00,0.0,WeatherDisplay:10.37,2013-08-31 07:52:00,
2013-08-31 03:57:00,68.1,66.3,29.86,WNW,283,0.0,0.0,94,0.00,,BKN,0.00,0.0,WeatherDisplay:10.37,2013-08-31 07:57:00,
2013-08-31 04:02:00,67.9,66.1,29.87,WNW,282,0.0,0.0,94,0.00,,BKN,0.00,0.0,WeatherDisplay:10.37,2013-08-31 08:02:00,
2013-08-31 04:07:00,67.8,66.3,29.87,WNW,283,0.0,0.0,95,0.00,,BKN,0.00,0.0,WeatherDisplay:10.37,2013-08-31 08:07:00,
2013-08-31 04:12:00,67.7,66.2,29.87,WNW,282,0.0,0.0,95,0.00,,BKN,0.00,0.0,WeatherDisplay:10.37,2013-08-31 08:12:00,
2013-08-31 04:17:00,67.7,66.2,29.87,WNW,282,0.0,0.0,95,0.00,,BKN,0.00,0.0,WeatherDisplay:10.37,2013-08-31 08:17:00,
2013-08-31 04:22:00,67.7,66.2,29.87,WNW,282,3.4,3.4,95,0.00,,BKN,0.00,0.0,WeatherDisplay:10.37,2013-08-31 08:22:00,
2013-08-31 04:27:00,67.8,66.3,29.87,WNW,282,1.1,1.1,95,0.00,,BKN,0.00,0.0,WeatherDisplay:10.37,2013-08-31 08:27:00,
2013-08-31 04:32:00,67.9,66.4,29.87,WNW,283,3.0,3.0,95,0.00,,BKN,0.00,0.0,WeatherDisplay:10.37,2013-08-31 08:32:00,
2013-08-31 04:37:00,67.8,66.3,29.87,WNW,292,3.4,3.4,95,0.00,,BKN,0.00,0.0,WeatherDisplay:10.37,2013-08-31 08:37:00,
2013-08-31 04:42:00,68.1,66.6,29.87,West,276,5.8,5.8,95,0.00,,BKN,0.00,0.0,WeatherDisplay:10.37,2013-08-31 08:42:00,
2013-08-31 04:47:00,68.3,66.8,29.86,West,275,5.8,5.8,95,0.00,,BKN,0.00,0.0,WeatherDisplay:10.37,2013-08-31 08:47:00,
2013-08-31 04:52:00,68.6,66.8,29.86,West,280,6.0,6.0,94,0.00,,BKN,0.00,0.0,WeatherDisplay:10.37,2013-08-31 08:52:00,
2013-08-31 04:57:00,68.8,66.7,29.86,West,267,3.4,3.4,93,0.00,,BKN,0.00,0.0,WeatherDisplay:10.37,2013-08-31 08:57:00,
2013-08-31 05:02:00,68.0,65.3,29.87,West,267,0.0,0.0,91,0.00,,BKN,0.00,0.0,WeatherDisplay:10.37,2013-08-31 09:02:00,
2013-08-31 05:07:00,67.1,64.7,29.87,West,266,2.3,2.3,92,0.00,,BKN,0.00,0.0,WeatherDisplay:10.37,2013-08-31 09:07:00,
2013-08-31 05:12:00,66.8,65.0,29.87,West,267,0.0,0.0,94,0.00,,BKN,0.00,0.0,WeatherDisplay:10.37,2013-08-31 09:12:00,
2013-08-31 05:17:00,67.0,65.5,29.87,West,266,2.3,2.3,95,0.00,,BKN,0.00,0.0,WeatherDisplay:10.37,2013-08-31 09:17:00,
2013-08-31 05:22:00,67.1,65.6,29.86,SW,220,2.3,2.3,95,0.00,,BKN,0.00,0.0,WeatherDisplay:10.37,2013-08-31 09:22:00,
2013-08-31 05:27:00,67.1,65.6,29.86,South,176,3.4,3.4,95,0.00,,BKN,0.00,0.0,WeatherDisplay:10.37,2013-08-31 09:27:00,
2013-08-31 05:32:00,67.1,65.6,29.86,SSW,208,1.1,1.1,95,0.00,,BKN,0.00,0.0,WeatherDisplay:10.37,2013-08-31 09:32:00,
2013-08-31 05:37:00,66.9,65.4,29.86,SSW,208,1.1,1.1,95,0.00,,BKN,0.00,0.0,WeatherDisplay:10.37,2013-08-31 09:37:00,
2013-08-31 05:42:00,66.9,65.4,29.86,SSW,208,0.0,0.0,95,0.00,,BKN,0.00,0.0,WeatherDisplay:10.37,2013-08-31 09:42:00,
2013-08-31 05:47:00,66.9,65.7,29.86,SSW,208,1.1,1.1,96,0.00,,BKN,0.00,0.0,WeatherDisplay:10.37,2013-08-31 09:47:00,
2013-08-31 05:52:00,66.9,65.7,29.86,SSW,208,1.1,1.1,96,0.00,,BKN,0.00,0.0,WeatherDisplay:10.37,2013-08-31 09:52:00,
2013-08-31 05:57:00,67.0,65.8,29.86,SSW,201,3.0,3.0,96,0.00,,BKN,0.00,0.0,WeatherDisplay:10.37,2013-08-31 09:57:00,
2013-08-31 06:02:00,66.9,65.7,29.86,SW,224,3.4,3.4,96,0.00,,BKN,0.00,0.0,WeatherDisplay:10.37,2013-08-31 10:02:00,
2013-08-31 06:07:00,66.7,65.5,29.85,SSW,203,2.3,2.3,96,0.00,,BKN,0.00,0.0,WeatherDisplay:10.37,2013-08-31 10:07:00,
2013-08-31 06:12:00,66.6,65.4,29.85,SW,214,1.1,1.1,96,0.00,,BKN,0.00,0.0,WeatherDisplay:10.37,2013-08-31 10:12:00,
2013-08-31 06:17:00,66.4,65.2,29.85,SSW,207,1.1,1.1,96,0.00,OVC,BKN,0.00,0.0,WeatherDisplay:10.37,2013-08-31 10:17:00,
2013-08-31 06:22:00,66.2,65.0,29.86,SSW,207,0.0,0.0,96,0.00,OVC,BKN,0.00,0.0,WeatherDisplay:10.37,2013-08-31 10:22:00,
2013-08-31 06:27:00,66.1,64.9,29.86,SSW,207,0.0,0.0,96,0.00,OVC,BKN,0.00,0.0,WeatherDisplay:10.37,2013-08-31 10:27:00,
2013-08-31 06:32:00,66.1,64.9,29.86,SSW,207,2.3,2.3,96,0.00,OVC,BKN,0.00,0.0,WeatherDisplay:10.37,2013-08-31 10:32:00,
2013-08-31 06:37:00,66.2,65.0,29.86,SSW,207,1.0,1.0,96,0.00,OVC,BKN,0.00,0.0,WeatherDisplay:10.37,2013-08-31 10:37:00,
2013-08-31 06:42:00,66.1,64.9,29.86,SSW,207,0.0,0.0,96,0.00,OVC,BKN,0.00,0.0,WeatherDisplay:10.37,2013-08-31 10:42:00,
2013-08-31 06:47:00,66.3,65.1,29.86,SSW,207,0.0,0.0,96,0.00,OVC,BKN,0.00,0.0,WeatherDisplay:10.37,2013-08-31 10:47:00,
2013-08-31 06:52:00,66.5,65.6,29.86,WSW,245,0.0,0.0,97,0.00,OVC,BKN,0.00,5.0,WeatherDisplay:10.37,2013-08-31 10:52:00,
2013-08-31 06:57:00,66.6,65.4,29.87,WSW,245,0.0,0.0,96,0.00,OVC,BKN,0.00,12.0,WeatherDisplay:10.37,2013-08-31 10:57:00,
2013-08-31 07:02:00,66.6,65.4,29.87,WSW,245,0.0,0.0,96,0.00,OVC,BKN,0.00,19.0,WeatherDisplay:10.37,2013-08-31 11:02:00,
2013-08-31 07:07:00,66.7,65.5,29.87,West,267,0.0,0.0,96,0.00,OVC,BKN,0.00,26.0,WeatherDisplay:10.37,2013-08-31 11:07:00,
2013-08-31 07:12:00,66.6,65.4,29.87,West,267,0.0,0.0,96,0.00,OVC,BKN,0.00,23.0,WeatherDisplay:10.37,2013-08-31 11:12:00,
2013-08-31 07:17:00,66.5,65.3,29.87,West,266,0.0,0.0,96,0.00,OVC,BKN,0.00,26.0,WeatherDisplay:10.37,2013-08-31 11:17:00,
2013-08-31 07:22:00,66.5,65.3,29.86,SSW,201,0.0,0.0,96,0.00,OVC,BKN,0.00,28.0,WeatherDisplay:10.37,2013-08-31 11:22:00,
2013-08-31 07:27:00,66.6,65.4,29.86,SSW,201,0.0,0.0,96,0.00,OVC,BKN,0.00,32.0,WeatherDisplay:10.37,2013-08-31 11:27:00,
2013-08-31 07:32:00,66.6,65.4,29.86,SSW,201,2.3,2.3,96,0.00,OVC,BKN,0.00,35.0,WeatherDisplay:10.37,2013-08-31 11:32:00,
2013-08-31 07:37:00,66.5,65.3,29.87,SSW,201,1.1,0.0,96,0.00,OVC,BKN,0.00,39.0,WeatherDisplay:10.37,2013-08-31 11:37:00,
2013-08-31 07:42:00,66.5,65.3,29.87,SSW,201,0.0,0.0,96,0.00,OVC,BKN,0.00,49.0,WeatherDisplay:10.37,2013-08-31 11:42:00,
2013-08-31 07:47:00,66.5,65.3,29.87,SSW,201,0.0,0.0,96,0.00,OVC,BKN,0.00,60.0,WeatherDisplay:10.37,2013-08-31 11:47:00,
2013-08-31 07:52:00,66.5,65.6,29.88,West,277,1.1,0.0,97,0.00,OVC,BKN,0.00,74.0,WeatherDisplay:10.37,2013-08-31 11:52:00,
2013-08-31 07:57:00,66.8,65.9,29.88,WNW,290,5.0,5.0,97,0.00,SCT,BKN,0.00,128.0,WeatherDisplay:10.37,2013-08-31 11:57:00,
2013-08-31 08:02:00,67.4,66.5,29.88,WNW,289,5.8,5.8,97,0.00,SCT,BKN,0.00,153.0,WeatherDisplay:10.37,2013-08-31 12:02:00,
2013-08-31 08:07:00,68.0,66.8,29.88,WNW,287,5.8,5.8,96,0.00,SCT,BKN,0.00,197.0,WeatherDisplay:10.37,2013-08-31 12:07:00,
2013-08-31 08:12:00,68.5,67.3,29.88,WNW,289,2.3,2.3,96,0.00,FEW,BKN,0.00,216.0,WeatherDisplay:10.37,2013-08-31 12:12:00,
2013-08-31 08:17:00,68.9,67.4,29.88,West,275,1.1,0.0,95,0.00,FEW,BKN,0.00,211.0,WeatherDisplay:10.37,2013-08-31 12:17:00,
2013-08-31 08:22:00,69.4,67.6,29.89,West,275,2.3,2.3,94,0.00,SCT,BKN,0.00,232.0,WeatherDisplay:10.37,2013-08-31 12:22:00,
2013-08-31 08:27:00,69.9,68.1,29.88,WSW,242,1.1,0.0,94,0.00,SCT,BKN,0.00,229.0,WeatherDisplay:10.37,2013-08-31 12:27:00,
2013-08-31 08:32:00,70.3,68.5,29.88,WSW,242,2.0,2.0,94,0.00,SCT,BKN,0.00,229.0,WeatherDisplay:10.37,2013-08-31 12:32:00,
2013-08-31 08:37:00,70.5,68.1,29.88,SE,137,3.4,3.4,92,0.00,FEW,BKN,0.00,265.0,WeatherDisplay:10.37,2013-08-31 12:37:00,
2013-08-31 08:42:00,70.8,68.4,29.88,SE,145,1.1,1.1,92,0.00,BKN,BKN,0.00,211.0,WeatherDisplay:10.37,2013-08-31 12:42:00,
2013-08-31 08:47:00,71.0,68.2,29.88,SSW,205,3.4,3.4,91,0.00,SCT,BKN,0.00,234.0,WeatherDisplay:10.37,2013-08-31 12:47:00,
2013-08-31 08:52:00,71.2,68.4,29.88,SSW,209,3.4,3.4,91,0.00,BKN,BKN,0.00,121.0,WeatherDisplay:10.37,2013-08-31 12:52:00,
2013-08-31 08:57:00,71.2,68.4,29.88,SSW,209,2.3,2.3,91,0.01,RA,BKN,0.01,283.0,WeatherDisplay:10.37,2013-08-31 12:57:00,
2013-08-31 09:02:00,71.4,68.6,29.88,South,185,1.1,1.1,91,0.01,RA,BKN,0.01,339.0,WeatherDisplay:10.37,2013-08-31 13:02:00,
2013-08-31 09:07:00,71.6,68.8,29.87,SW,222,2.0,2.0,91,0.01,CLR,BKN,0.01,403.0,WeatherDisplay:10.37,2013-08-31 13:07:00,
2013-08-31 09:12:00,72.1,69.0,29.87,SW,222,1.1,1.1,90,0.01,FEW,BKN,0.01,345.0,WeatherDisplay:10.37,2013-08-31 13:12:00,
2013-08-31 09:17:00,72.3,68.9,29.87,SSW,204,3.4,3.4,89,0.01,SCT,BKN,0.01,309.0,WeatherDisplay:10.37,2013-08-31 13:17:00,
2013-08-31 09:22:00,72.5,69.4,29.87,SSW,205,3.4,3.4,90,0.01,FEW,BKN,0.01,369.0,WeatherDisplay:10.37,2013-08-31 13:22:00,
2013-08-31 09:27:00,72.7,69.3,29.87,SSW,204,2.0,2.0,89,0.01,FEW,BKN,0.01,387.0,WeatherDisplay:10.37,2013-08-31 13:27:00,
2013-08-31 09:32:00,72.9,69.1,29.88,SSW,204,4.6,4.6,88,0.01,FEW,BKN,0.01,390.0,WeatherDisplay:10.37,2013-08-31 13:32:00,
2013-08-31 09:37:00,73.2,69.8,29.87,SW,215,1.1,1.1,89,0.01,CLR,BKN,0.01,462.0,WeatherDisplay:10.37,2013-08-31 13:37:00,
2013-08-31 09:42:00,73.7,70.3,29.88,WSW,249,2.3,2.3,89,0.01,CLR,BKN,0.01,455.0,WeatherDisplay:10.37,2013-08-31 13:42:00,
2013-08-31 09:47:00,74.0,70.2,29.87,SSW,210,3.4,3.4,88,0.01,CLR,BKN,0.01,471.0,WeatherDisplay:10.37,2013-08-31 13:47:00,
2013-08-31 09:52:00,74.3,70.2,29.87,SW,220,3.4,3.4,87,0.01,FEW,BKN,0.01,357.0,WeatherDisplay:10.37,2013-08-31 13:52:00,
2013-08-31 09:57:00,74.2,69.7,29.87,South,182,5.8,5.8,86,0.00,BKN,BKN,0.01,262.0,WeatherDisplay:10.37,2013-08-31 13:57:00,
2013-08-31 10:02:00,74.2,69.7,29.87,South,184,3.4,3.4,86,0.00,BKN,BKN,0.01,227.0,WeatherDisplay:10.37,2013-08-31 14:02:00,
2013-08-31 10:07:00,74.1,69.6,29.87,SSW,211,3.4,3.4,86,0.00,SCT,BKN,0.01,385.0,WeatherDisplay:10.37,2013-08-31 14:07:00,
2013-08-31 10:12:00,74.3,70.2,29.87,WSW,256,2.3,2.3,87,0.00,CLR,BKN,0.01,545.0,WeatherDisplay:10.37,2013-08-31 14:12:00,
2013-08-31 10:17:00,74.6,69.8,29.87,South,187,3.4,3.4,85,0.00,BKN,BKN,0.01,278.0,WeatherDisplay:10.37,2013-08-31 14:17:00,
2013-08-31 10:22:00,75.1,71.0,29.87,SSE,168,3.0,3.0,87,0.00,CLR,BKN,0.01,596.0,WeatherDisplay:10.37,2013-08-31 14:22:00,
2013-08-31 10:27:00,75.8,70.6,29.87,SSW,206,5.8,5.8,84,0.00,CLR,BKN,0.01,599.0,WeatherDisplay:10.37,2013-08-31 14:27:00,
2013-08-31 10:32:00,76.2,70.7,29.87,WSW,256,3.4,3.4,83,0.00,CLR,BKN,0.01,610.0,WeatherDisplay:10.37,2013-08-31 14:32:00,
2013-08-31 10:37:00,76.5,70.9,29.87,South,180,3.4,3.4,83,0.00,CLR,BKN,0.01,626.0,WeatherDisplay:10.37,2013-08-31 14:37:00,
2013-08-31 10:42:00,76.8,70.5,29.87,East,101,3.4,3.4,81,0.00,CLR,BKN,0.01,652.0,WeatherDisplay:10.37,2013-08-31 14:42:00,
2013-08-31 10:47:00,77.2,70.9,29.86,SSW,196,3.0,3.0,81,0.00,CLR,BKN,0.01,664.0,WeatherDisplay:10.37,2013-08-31 14:47:00,
2013-08-31 10:52:00,77.6,71.3,29.86,SW,215,4.0,4.0,81,0.00,CLR,BKN,0.01,654.0,WeatherDisplay:10.37,2013-08-31 14:52:00,
2013-08-31 10:57:00,77.7,70.7,29.86,West,268,2.3,2.3,79,0.00,CLR,BKN,0.01,647.0,WeatherDisplay:10.37,2013-08-31 14:57:00,
2013-08-31 11:02:00,77.9,71.2,29.86,SSW,193,4.0,4.0,80,0.00,CLR,BKN,0.01,663.0,WeatherDisplay:10.37,2013-08-31 15:02:00,
2013-08-31 11:07:00,78.0,70.2,29.86,South,181,4.6,4.6,77,0.00,CLR,BKN,0.01,694.0,WeatherDisplay:10.37,2013-08-31 15:07:00,
2013-08-31 11:12:00,78.5,71.4,29.86,South,189,3.0,3.0,79,0.00,CLR,BKN,0.01,701.0,WeatherDisplay:10.37,2013-08-31 15:12:00,
2013-08-31 11:17:00,78.7,70.9,29.86,WNW,293,0.0,0.0,77,0.00,CLR,BKN,0.01,701.0,WeatherDisplay:10.37,2013-08-31 15:17:00,
2013-08-31 11:22:00,78.9,71.1,29.86,SW,232,3.4,3.4,77,0.00,CLR,BKN,0.01,608.0,WeatherDisplay:10.37,2013-08-31 15:22:00,
2013-08-31 11:27:00,79.2,70.6,29.86,SSW,210,5.8,5.8,75,0.00,BKN,BKN,0.01,306.0,WeatherDisplay:10.37,2013-08-31 15:27:00,
2013-08-31 11:32:00,79.2,69.8,29.86,WSW,258,5.8,5.8,73,0.00,CLR,BKN,0.01,782.0,WeatherDisplay:10.37,2013-08-31 15:32:00,
2013-08-31 11:37:00,79.3,69.9,29.86,WSW,247,2.3,2.3,73,0.00,CLR,BKN,0.01,707.0,WeatherDisplay:10.37,2013-08-31 15:37:00,
2013-08-31 11:42:00,79.5,71.3,29.86,West,263,3.4,3.4,76,0.00,CLR,BKN,0.01,756.0,WeatherDisplay:10.37,2013-08-31 15:42:00,
2013-08-31 11:47:00,79.9,70.5,29.85,SSW,199,6.9,6.9,73,0.00,SCT,BKN,0.01,570.0,WeatherDisplay:10.37,2013-08-31 15:47:00,
2013-08-31 11:52:00,80.4,70.9,29.86,West,278,3.4,3.4,73,0.00,CLR,BKN,0.01,784.0,WeatherDisplay:10.37,2013-08-31 15:52:00,
2013-08-31 11:57:00,80.9,70.2,29.85,SW,229,5.0,5.0,70,0.00,FEW,BKN,0.01,621.0,WeatherDisplay:10.37,2013-08-31 15:57:00,
2013-08-31 12:02:00,80.8,70.1,29.85,SW,235,5.8,5.8,70,0.00,BKN,BKN,0.01,318.0,WeatherDisplay:10.37,2013-08-31 16:02:00,
2013-08-31 12:07:00,80.3,70.0,29.85,South,177,0.0,0.1,71,0.00,BKN,BKN,0.01,327.0,WeatherDisplay:10.37,2013-08-31 16:07:00,
2013-08-31 12:12:00,80.3,70.4,29.85,South,189,3.4,3.4,72,0.00,BKN,BKN,0.01,338.0,WeatherDisplay:10.37,2013-08-31 16:12:00,
2013-08-31 12:17:00,80.5,70.6,29.85,SSW,201,3.4,3.4,72,0.00,BKN,BKN,0.01,341.0,WeatherDisplay:10.37,2013-08-31 16:17:00,
2013-08-31 12:22:00,80.9,70.6,29.84,SSW,201,0.0,0.0,71,0.00,BKN,BKN,0.01,325.0,WeatherDisplay:10.37,2013-08-31 16:22:00,
2013-08-31 12:27:00,81.3,71.8,29.84,West,265,2.3,2.3,73,0.00,FEW,BKN,0.01,550.0,WeatherDisplay:10.37,2013-08-31 16:27:00,
2013-08-31 12:32:00,81.4,71.1,29.84,SW,217,3.4,3.4,71,0.00,CLR,BKN,0.01,851.0,WeatherDisplay:10.37,2013-08-31 16:32:00,
2013-08-31 12:37:00,81.7,71.4,29.84,South,176,1.1,1.1,71,0.00,CLR,BKN,0.01,846.0,WeatherDisplay:10.37,2013-08-31 16:37:00,
2013-08-31 12:42:00,82.5,71.7,29.84,South,182,3.4,3.4,70,0.00,CLR,BKN,0.01,821.0,WeatherDisplay:10.37,2013-08-31 16:42:00,
2013-08-31 12:47:00,82.9,71.3,29.83,SSE,168,2.3,2.3,68,0.00,CLR,BKN,0.01,802.0,WeatherDisplay:10.37,2013-08-31 16:47:00,
2013-08-31 12:52:00,83.0,70.5,29.84,West,281,3.4,3.4,66,0.00,CLR,BKN,0.01,749.0,WeatherDisplay:10.37,2013-08-31 16:52:00,
2013-08-31 12:57:00,82.6,71.0,29.84,South,186,1.1,1.1,68,0.00,OVC,BKN,0.01,207.0,WeatherDisplay:10.37,2013-08-31 16:57:00,
2013-08-31 13:02:00,81.9,70.7,29.84,South,189,3.4,3.4,69,0.00,BKN,BKN,0.01,359.0,WeatherDisplay:10.37,2013-08-31 17:02:00,
2013-08-31 13:07:00,81.6,70.4,29.84,South,185,3.4,3.4,69,0.00,BKN,BKN,0.01,357.0,WeatherDisplay:10.37,2013-08-31 17:07:00,
2013-08-31 13:12:00,81.5,71.2,29.84,SSE,156,3.4,3.4,71,0.00,FEW,BKN,0.01,548.0,WeatherDisplay:10.37,2013-08-31 17:12:00,
2013-08-31 13:17:00,82.0,70.4,29.84,WNW,282,3.0,3.0,68,0.00,CLR,BKN,0.01,933.0,WeatherDisplay:10.37,2013-08-31 17:17:00,
2013-08-31 13:22:00,82.5,71.7,29.84,SSW,204,6.9,6.9,70,0.00,CLR,BKN,0.01,802.0,WeatherDisplay:10.37,2013-08-31 17:22:00,
2013-08-31 13:27:00,83.2,71.5,29.84,SE,145,3.4,3.4,68,0.00,CLR,BKN,0.01,918.0,WeatherDisplay:10.37,2013-08-31 17:27:00,
2013-08-31 13:32:00,83.9,72.2,29.84,SSW,194,3.4,3.4,68,0.00,CLR,BKN,0.01,710.0,WeatherDisplay:10.37,2013-08-31 17:32:00,
2013-08-31 13:37:00,84.0,72.7,29.83,South,190,2.0,2.0,69,0.00,OVC,BKN,0.01,250.0,WeatherDisplay:10.37,2013-08-31 17:37:00,
2013-08-31 13:42:00,83.2,71.1,29.84,West,278,3.4,3.4,67,0.00,OVC,BKN,0.01,211.0,WeatherDisplay:10.37,2013-08-31 17:42:00,
2013-08-31 13:47:00,82.6,71.4,29.84,West,263,0.0,0.0,69,0.00,BKN,BKN,0.01,257.0,WeatherDisplay:10.37,2013-08-31 17:47:00,
2013-08-31 13:52:00,82.6,71.4,29.84,ESE,112,1.1,0.0,69,0.00,BKN,BKN,0.01,257.0,WeatherDisplay:10.37,2013-08-31 17:52:00,
2013-08-31 13:57:00,82.8,71.6,29.84,SSW,195,2.3,2.3,69,0.00,BKN,BKN,0.01,650.0,WeatherDisplay:10.37,2013-08-31 17:57:00,
2013-08-31 14:02:00,82.8,71.2,29.83,SSW,195,2.3,2.3,68,0.00,OVC,BKN,0.01,186.0,WeatherDisplay:10.37,2013-08-31 18:02:00,
2013-08-31 14:07:00,82.6,72.7,29.83,SSW,195,0.0,0.0,72,0.00,OVC,BKN,0.01,165.0,WeatherDisplay:10.37,2013-08-31 18:07:00,
2013-08-31 14:12:00,82.7,71.9,29.83,ENE,77,1.1,1.1,70,0.00,OVC,BKN,0.01,121.0,WeatherDisplay:10.37,2013-08-31 18:12:00,
2013-08-31 14:17:00,82.4,71.6,29.83,West,263,2.3,2.3,70,0.00,OVC,BKN,0.01,88.0,WeatherDisplay:10.37,2013-08-31 18:17:00,
2013-08-31 14:22:00,81.8,71.5,29.82,SE,125,3.4,3.4,71,0.00,OVC,BKN,0.01,58.0,WeatherDisplay:10.37,2013-08-31 18:22:00,
2013-08-31 14:27:00,81.1,71.6,29.82,WNW,300,2.3,2.3,73,0.00,OVC,BKN,0.01,51.0,WeatherDisplay:10.37,2013-08-31 18:27:00,
2013-08-31 14:32:00,80.0,72.1,29.83,NW,318,0.0,0.0,77,0.01,RA,BKN,0.02,53.0,WeatherDisplay:10.37,2013-08-31 18:32:00,
2013-08-31 14:37:00,79.1,72.4,29.83,NNE,26,0.0,0.0,80,0.01,RA,BKN,0.02,56.0,WeatherDisplay:10.37,2013-08-31 18:37:00,
2013-08-31 14:42:00,77.8,70.8,29.83,NE,39,6.9,6.9,79,0.01,OVC,BKN,0.02,69.0,WeatherDisplay:10.37,2013-08-31 18:42:00,
2013-08-31 14:47:00,75.5,69.3,29.82,SE,143,5.0,5.0,81,0.01,OVC,BKN,0.02,121.0,WeatherDisplay:10.37,2013-08-31 18:47:00,
2013-08-31 14:52:00,75.3,70.5,29.82,ENE,61,2.3,2.3,85,0.01,BKN,BKN,0.02,232.0,WeatherDisplay:10.37,2013-08-31 18:52:00,
2013-08-31 14:57:00,75.1,70.3,29.82,ENE,68,3.4,3.4,85,0.01,SCT,BKN,0.03,343.0,WeatherDisplay:10.37,2013-08-31 18:57:00,
2013-08-31 15:02:00,74.7,69.9,29.82,ENE,66,3.4,3.4,85,0.02,RA,BKN,0.03,190.0,WeatherDisplay:10.37,2013-08-31 19:02:00,
2013-08-31 15:07:00,74.2,69.7,29.82,ESE,118,2.3,2.3,86,0.02,RA,BKN,0.03,146.0,WeatherDisplay:10.37,2013-08-31 19:07:00,
2013-08-31 15:12:00,73.9,69.8,29.82,SE,129,5.8,5.8,87,0.02,OVC,BKN,0.03,127.0,WeatherDisplay:10.37,2013-08-31 19:12:00,
2013-08-31 15:17:00,73.6,69.2,29.82,ESE,119,3.4,3.4,86,0.02,OVC,BKN,0.03,130.0,WeatherDisplay:10.37,2013-08-31 19:17:00,
2013-08-31 15:22:00,73.3,68.5,29.81,East,82,4.6,4.6,85,0.02,OVC,BKN,0.03,128.0,WeatherDisplay:10.37,2013-08-31 19:22:00,
2013-08-31 15:27:00,73.2,68.8,29.81,East,100,0.0,0.0,86,0.03,RA,BKN,0.04,121.0,WeatherDisplay:10.37,2013-08-31 19:27:00,
2013-08-31 15:32:00,73.1,68.0,29.82,SW,228,3.4,3.4,84,0.02,RA,BKN,0.04,86.0,WeatherDisplay:10.37,2013-08-31 19:32:00,
2013-08-31 15:37:00,72.5,66.7,29.81,ESE,118,2.3,2.3,82,0.02,OVC,BKN,0.04,69.0,WeatherDisplay:10.37,2013-08-31 19:37:00,
2013-08-31 15:42:00,72.2,67.1,29.81,ESE,118,0.0,0.0,84,0.02,OVC,BKN,0.04,58.0,WeatherDisplay:10.37,2013-08-31 19:42:00,
2013-08-31 15:47:00,71.8,67.0,29.82,ENE,73,3.0,3.0,85,0.02,OVC,BKN,0.05,44.0,WeatherDisplay:10.37,2013-08-31 19:47:00,
2013-08-31 15:52:00,71.7,68.3,29.82,NE,56,2.0,2.0,89,0.03,RA,BKN,0.05,44.0,WeatherDisplay:10.37,2013-08-31 19:52:00,
2013-08-31 15:57:00,71.5,68.1,29.82,ENE,62,3.4,3.4,89,0.03,RA,BKN,0.05,49.0,WeatherDisplay:10.37,2013-08-31 19:57:00,
2013-08-31 16:02:00,71.2,67.8,29.82,ESE,112,4.6,4.6,89,0.02,OVC,BKN,0.05,46.0,WeatherDisplay:10.37,2013-08-31 20:02:00,
2013-08-31 16:07:00,71.3,68.2,29.81,SSE,158,2.3,2.3,90,0.02,OVC,BKN,0.05,58.0,WeatherDisplay:10.37,2013-08-31 20:07:00,
2013-08-31 16:12:00,71.2,68.1,29.82,NE,43,3.4,0.0,90,0.02,OVC,BKN,0.05,69.0,WeatherDisplay:10.37,2013-08-31 20:12:00,
2013-08-31 16:17:00,70.8,67.7,29.81,NE,43,0.0,0.0,90,0.03,RA,BKN,0.06,69.0,WeatherDisplay:10.37,2013-08-31 20:17:00,
2013-08-31 16:22:00,70.4,67.3,29.81,SSE,147,0.0,0.0,90,0.03,RA,BKN,0.06,72.0,WeatherDisplay:10.37,2013-08-31 20:22:00,
2013-08-31 16:27:00,70.0,66.9,29.82,South,170,0.0,0.0,90,0.02,OVC,BKN,0.06,132.0,WeatherDisplay:10.37,2013-08-31 20:27:00,
2013-08-31 16:32:00,69.5,66.1,29.81,SSW,198,0.0,0.0,89,0.02,BKN,BKN,0.06,146.0,WeatherDisplay:10.37,2013-08-31 20:32:00,
2013-08-31 16:37:00,69.3,66.2,29.82,NW,315,0.0,0.0,90,0.03,RA,BKN,0.07,83.0,WeatherDisplay:10.37,2013-08-31 20:37:00,
2013-08-31 16:42:00,69.5,66.8,29.82,WNW,294,0.0,0.0,91,0.03,RA,BKN,0.07,70.0,WeatherDisplay:10.37,2013-08-31 20:42:00,
2013-08-31 16:47:00,69.7,67.0,29.81,WNW,294,0.0,0.0,91,0.03,OVC,BKN,0.07,70.0,WeatherDisplay:10.37,2013-08-31 20:47:00,
2013-08-31 16:52:00,70.0,67.6,29.81,NW,305,0.0,0.0,92,0.02,OVC,BKN,0.07,74.0,WeatherDisplay:10.37,2013-08-31 20:52:00,
2013-08-31 16:57:00,70.3,67.9,29.81,NW,305,0.0,0.0,92,0.02,CLR,BKN,0.07,330.0,WeatherDisplay:10.37,2013-08-31 20:57:00,
2013-08-31 17:02:00,71.1,69.3,29.81,NW,305,0.0,0.0,94,0.03,RA,BKN,0.08,253.0,WeatherDisplay:10.37,2013-08-31 21:02:00,
2013-08-31 17:07:00,71.7,69.6,29.81,WNW,285,0.0,0.0,93,0.03,RA,BKN,0.08,127.0,WeatherDisplay:10.37,2013-08-31 21:07:00,
2013-08-31 17:12:00,72.0,69.9,29.81,WSW,256,0.0,0.0,93,0.03,OVC,BKN,0.08,90.0,WeatherDisplay:10.37,2013-08-31 21:12:00,
2013-08-31 17:17:00,72.3,70.2,29.80,SSE,166,0.0,0.0,93,0.02,OVC,BKN,0.08,72.0,WeatherDisplay:10.37,2013-08-31 21:17:00,
2013-08-31 17:22:00,72.1,70.0,29.81,SE,145,0.0,0.0,93,0.03,RA,BKN,0.09,77.0,WeatherDisplay:10.37,2013-08-31 21:22:00,
2013-08-31 17:27:00,71.7,69.3,29.81,SSE,166,0.0,0.0,92,0.03,RA,BKN,0.09,111.0,WeatherDisplay:10.37,2013-08-31 21:27:00,
2013-08-31 17:32:00,71.7,69.9,29.81,SW,226,0.0,0.0,94,0.03,BKN,BKN,0.09,127.0,WeatherDisplay:10.37,2013-08-31 21:32:00,
2013-08-31 17:37:00,71.5,69.7,29.81,ESE,103,0.0,0.0,94,0.02,SCT,BKN,0.09,130.0,WeatherDisplay:10.37,2013-08-31 21:37:00,
2013-08-31 17:42:00,71.3,69.2,29.82,West,275,0.0,0.0,93,0.02,BKN,BKN,0.09,114.0,WeatherDisplay:10.37,2013-08-31 21:42:00,
2013-08-31 17:47:00,71.1,69.0,29.81,West,275,0.0,0.0,93,0.03,RA,BKN,0.10,111.0,WeatherDisplay:10.37,2013-08-31 21:47:00,
2013-08-31 17:52:00,71.0,68.6,29.81,West,275,0.0,0.0,92,0.03,RA,BKN,0.10,109.0,WeatherDisplay:10.37,2013-08-31 21:52:00,
2013-08-31 17:57:00,71.4,69.3,29.81,NE,53,0.0,0.0,93,0.03,SCT,BKN,0.10,114.0,WeatherDisplay:10.37,2013-08-31 21:57:00,
2013-08-31 18:02:00,71.8,70.0,29.82,ENE,63,0.0,0.0,94,0.03,RA,BKN,0.11,107.0,WeatherDisplay:10.37,2013-08-31 22:02:00,
2013-08-31 18:07:00,71.9,70.1,29.82,SE,134,0.0,0.0,94,0.03,RA,BKN,0.11,105.0,WeatherDisplay:10.37,2013-08-31 22:07:00,
2013-08-31 18:12:00,71.4,69.6,29.82,SSE,162,0.0,0.0,94,0.03,SCT,BKN,0.11,104.0,WeatherDisplay:10.37,2013-08-31 22:12:00,
2013-08-31 18:17:00,71.1,69.3,29.83,SSE,162,0.0,0.0,94,0.03,SCT,BKN,0.11,90.0,WeatherDisplay:10.37,2013-08-31 22:17:00,
2013-08-31 18:22:00,71.2,69.7,29.82,SSE,162,0.0,0.0,95,0.02,FEW,BKN,0.11,104.0,WeatherDisplay:10.37,2013-08-31 22:22:00,
2013-08-31 18:27:00,71.2,69.7,29.82,SSE,162,0.0,0.0,95,0.03,RA,BKN,0.12,76.0,WeatherDisplay:10.37,2013-08-31 22:27:00,
2013-08-31 18:32:00,71.2,69.7,29.82,SSE,162,0.0,0.0,95,0.03,RA,BKN,0.12,49.0,WeatherDisplay:10.37,2013-08-31 22:32:00,
2013-08-31 18:37:00,71.1,69.6,29.83,SSE,162,0.0,0.0,95,0.03,OVC,BKN,0.12,26.0,WeatherDisplay:10.37,2013-08-31 22:37:00,
2013-08-31 18:42:00,71.1,69.6,29.83,SSE,162,0.0,0.0,95,0.03,OVC,BKN,0.12,19.0,WeatherDisplay:10.37,2013-08-31 22:42:00,
2013-08-31 18:47:00,71.1,69.6,29.83,SSE,162,0.0,0.0,95,0.03,RA,BKN,0.13,18.0,WeatherDisplay:10.37,2013-08-31 22:47:00,
2013-08-31 18:52:00,70.7,68.9,29.83,SSE,162,0.0,0.0,94,0.03,RA,BKN,0.13,19.0,WeatherDisplay:10.37,2013-08-31 22:52:00,
2013-08-31 18:57:00,70.5,68.7,29.83,SSE,162,0.0,0.0,94,0.03,BKN,BKN,0.13,26.0,WeatherDisplay:10.37,2013-08-31 22:57:00,
2013-08-31 19:02:00,70.4,68.9,29.83,SSE,162,0.0,0.0,95,0.02,SCT,BKN,0.13,26.0,WeatherDisplay:10.37,2013-08-31 23:02:00,
2013-08-31 19:07:00,70.5,69.0,29.83,SSE,162,0.0,0.0,95,0.02,BKN,BKN,0.13,16.0,WeatherDisplay:10.37,2013-08-31 23:07:00,
2013-08-31 19:12:00,70.5,69.0,29.84,SSE,162,0.0,0.0,95,0.02,OVC,BKN,0.13,9.0,WeatherDisplay:10.37,2013-08-31 23:12:00,
2013-08-31 19:17:00,70.5,69.0,29.84,WSW,258,0.0,0.0,95,0.02,OVC,BKN,0.13,5.0,WeatherDisplay:10.37,2013-08-31 23:17:00,
2013-08-31 19:22:00,70.3,68.8,29.84,WSW,258,0.0,0.0,95,0.02,OVC,BKN,0.14,5.0,WeatherDisplay:10.37,2013-08-31 23:22:00,
2013-08-31 19:27:00,70.2,68.7,29.85,WSW,258,0.0,0.0,95,0.02,RA,BKN,0.14,5.0,WeatherDisplay:10.37,2013-08-31 23:27:00,
2013-08-31 19:32:00,70.1,68.6,29.86,West,277,0.0,0.0,95,0.02,RA,BKN,0.14,0.0,WeatherDisplay:10.37,2013-08-31 23:32:00,
2013-08-31 19:37:00,70.1,68.6,29.85,West,281,0.0,0.0,95,0.02,OVC,BKN,0.14,0.0,WeatherDisplay:10.37,2013-08-31 23:37:00,
2013-08-31 19:42:00,70.1,68.6,29.86,West,280,0.0,0.0,95,0.02,OVC,BKN,0.14,0.0,WeatherDisplay:10.37,2013-08-31 23:42:00,
2013-08-31 19:47:00,70.0,68.2,29.86,West,280,0.0,0.0,94,0.01,OVC,BKN,0.14,0.0,WeatherDisplay:10.37,2013-08-31 23:47:00,
2013-08-31 19:52:00,69.9,68.4,29.86,WSW,250,0.0,0.0,95,0.02,RA,BKN,0.15,0.0,WeatherDisplay:10.37,2013-08-31 23:52:00,
2013-08-31 19:57:00,69.8,68.3,29.85,WSW,250,0.0,0.0,95,0.02,RA,BKN,0.15,0.0,WeatherDisplay:10.37,2013-08-31 23:57:00,
2013-08-31 20:02:00,69.7,68.2,29.85,WSW,241,0.0,0.0,95,0.02,,BKN,0.15,0.0,WeatherDisplay:10.37,2013-09-01 00:02:00,
2013-08-31 20:07:00,69.5,68.0,29.85,WSW,240,0.0,0.0,95,0.02,,BKN,0.15,0.0,WeatherDisplay:10.37,2013-09-01 00:07:00,
2013-08-31 20:12:00,69.4,67.9,29.85,WSW,240,0.0,0.0,95,0.02,,BKN,0.15,0.0,WeatherDisplay:10.37,2013-09-01 00:12:00,
2013-08-31 20:17:00,69.3,68.1,29.85,SSW,199,0.0,0.0,96,0.02,,BKN,0.15,0.0,WeatherDisplay:10.37,2013-09-01 00:17:00,
2013-08-31 20:22:00,69.2,68.0,29.86,SSW,199,0.0,0.0,96,0.02,,BKN,0.15,0.0,WeatherDisplay:10.37,2013-09-01 00:22:00,
2013-08-31 20:27:00,69.2,68.0,29.85,SSW,199,0.0,0.0,96,0.01,,BKN,0.15,0.0,WeatherDisplay:10.37,2013-09-01 00:27:00,
2013-08-31 20:32:00,69.1,67.9,29.86,SSW,199,0.0,0.0,96,0.01,,BKN,0.15,0.0,WeatherDisplay:10.37,2013-09-01 00:32:00,
2013-08-31 20:37:00,69.0,67.8,29.86,SSW,199,0.0,0.0,96,0.01,,BKN,0.15,0.0,WeatherDisplay:10.37,2013-09-01 00:37:00,
2013-08-31 20:42:00,68.9,67.7,29.85,SSW,199,0.0,0.0,96,0.02,RA,BKN,0.16,0.0,WeatherDisplay:10.37,2013-09-01 00:42:00,
2013-08-31 20:47:00,68.8,67.6,29.86,SSW,200,0.0,0.0,96,0.02,RA,BKN,0.16,0.0,WeatherDisplay:10.37,2013-09-01 00:47:00,
2013-08-31 20:52:00,68.7,67.8,29.86,WSW,245,0.0,0.0,97,0.01,,BKN,0.16,0.0,WeatherDisplay:10.37,2013-09-01 00:52:00,
2013-08-31 20:57:00,68.6,67.7,29.86,WSW,258,0.0,0.0,97,0.01,,BKN,0.16,0.0,WeatherDisplay:10.37,2013-09-01 00:57:00,
2013-08-31 21:02:00,68.3,67.4,29.86,West,260,0.0,0.0,97,0.01,,BKN,0.16,0.0,WeatherDisplay:10.37,2013-09-01 01:02:00,
2013-08-31 21:07:00,68.2,67.0,29.86,West,260,0.0,0.0,96,0.01,,BKN,0.16,0.0,WeatherDisplay:10.37,2013-09-01 01:07:00,
2013-08-31 21:12:00,68.1,66.9,29.85,West,272,0.0,0.0,96,0.01,,BKN,0.16,0.0,WeatherDisplay:10.37,2013-09-01 01:12:00,
2013-08-31 21:17:00,68.0,67.1,29.85,WSW,256,0.0,0.0,97,0.02,RA,BKN,0.17,0.0,WeatherDisplay:10.37,2013-09-01 01:17:00,
2013-08-31 21:22:00,68.0,67.1,29.85,WNW,287,0.0,0.0,97,0.02,RA,BKN,0.17,0.0,WeatherDisplay:10.37,2013-09-01 01:22:00,
2013-08-31 21:27:00,68.1,67.2,29.85,WNW,287,0.0,0.0,97,0.02,,BKN,0.17,0.0,WeatherDisplay:10.37,2013-09-01 01:27:00,
2013-08-31 21:32:00,68.0,66.8,29.85,West,281,0.0,0.0,96,0.02,,BKN,0.17,0.0,WeatherDisplay:10.37,2013-09-01 01:32:00,
2013-08-31 21:37:00,67.8,66.6,29.85,SSW,201,0.0,0.0,96,0.02,,BKN,0.17,0.0,WeatherDisplay:10.37,2013-09-01 01:37:00,
2013-08-31 21:42:00,67.7,66.8,29.85,SSW,193,0.0,0.0,97,0.01,,BKN,0.17,0.0,WeatherDisplay:10.37,2013-09-01 01:42:00,
2013-08-31 21:47:00,67.8,66.9,29.86,SSW,212,0.0,0.0,97,0.01,,BKN,0.17,0.0,WeatherDisplay:10.37,2013-09-01 01:47:00,
2013-08-31 21:52:00,68.0,67.1,29.85,West,277,0.0,0.0,97,0.01,,BKN,0.17,0.0,WeatherDisplay:10.37,2013-09-01 01:52:00,
2013-08-31 21:57:00,68.1,67.2,29.85,WNW,286,0.0,0.0,97,0.01,,BKN,0.17,0.0,WeatherDisplay:10.37,2013-09-01 01:57:00,
2013-08-31 22:02:00,68.4,67.5,29.85,West,278,0.0,0.0,97,0.01,,BKN,0.17,0.0,WeatherDisplay:10.37,2013-09-01 02:02:00,
2013-08-31 22:07:00,68.5,67.6,29.85,West,267,0.0,0.0,97,0.01,,BKN,0.17,0.0,WeatherDisplay:10.37,2013-09-01 02:07:00,
2013-08-31 22:12:00,68.4,67.5,29.85,West,278,0.0,0.0,97,0.01,,BKN,0.17,0.0,WeatherDisplay:10.37,2013-09-01 02:12:00,
2013-08-31 22:17:00,68.4,67.5,29.85,West,266,3.4,3.4,97,0.00,,BKN,0.17,0.0,WeatherDisplay:10.37,2013-09-01 02:17:00,
2013-08-31 22:22:00,68.3,67.1,29.85,West,281,3.4,3.4,96,0.00,,BKN,0.17,0.0,WeatherDisplay:10.37,2013-09-01 02:22:00,
2013-08-31 22:27:00,68.3,67.1,29.85,West,271,2.3,2.3,96,0.00,,BKN,0.17,0.0,WeatherDisplay:10.37,2013-09-01 02:27:00,
2013-08-31 22:32:00,68.3,67.1,29.85,West,267,3.4,3.4,96,0.00,,BKN,0.17,0.0,WeatherDisplay:10.37,2013-09-01 02:32:00,
2013-08-31 22:37:00,68.2,67.0,29.85,West,270,3.4,3.4,96,0.00,,BKN,0.17,0.0,WeatherDisplay:10.37,2013-09-01 02:37:00,
2013-08-31 22:42:00,68.1,66.9,29.85,West,270,4.6,4.6,96,0.01,RA,BKN,0.18,0.0,WeatherDisplay:10.37,2013-09-01 02:42:00,
2013-08-31 22:47:00,68.1,66.9,29.85,West,272,3.4,3.4,96,0.01,RA,BKN,0.18,0.0,WeatherDisplay:10.37,2013-09-01 02:47:00,
2013-08-31 22:52:00,68.1,66.9,29.84,WNW,284,3.4,3.4,96,0.01,,BKN,0.18,0.0,WeatherDisplay:10.37,2013-09-01 02:52:00,
2013-08-31 22:57:00,68.0,66.8,29.84,West,279,1.1,1.1,96,0.01,,BKN,0.18,0.0,WeatherDisplay:10.37,2013-09-01 02:57:00,
2013-08-31 23:02:00,67.9,66.7,29.84,West,279,1.1,0.0,96,0.01,,BKN,0.18,0.0,WeatherDisplay:10.37,2013-09-01 03:02:00,
2013-08-31 23:07:00,67.8,66.3,29.84,West,279,1.1,1.1,95,0.01,,BKN,0.18,0.0,WeatherDisplay:10.37,2013-09-01 03:07:00,
2013-08-31 23:12:00,67.9,66.4,29.84,WNW,285,4.6,4.6,95,0.01,,BKN,0.18,0.0,WeatherDisplay:10.37,2013-09-01 03:12:00,
2013-08-31 23:17:00,68.6,66.8,29.84,West,272,4.6,4.6,94,0.01,,BKN,0.18,0.0,WeatherDisplay:10.37,2013-09-01 03:17:00,
2013-08-31 23:22:00,68.8,66.7,29.84,WNW,297,9.2,9.2,93,0.01,,BKN,0.18,0.0,WeatherDisplay:10.37,2013-09-01 03:22:00,
2013-08-31 23:27:00,69.0,66.6,29.84,West,280,4.6,4.6,92,0.01,,BKN,0.18,0.0,WeatherDisplay:10.37,2013-09-01 03:27:00,
2013-08-31 23:32:00,69.2,66.8,29.84,West,279,3.4,3.4,92,0.01,,BKN,0.18,0.0,WeatherDisplay:10.37,2013-09-01 03:32:00,
2013-08-31 23:37:00,69.3,66.6,29.84,WSW,241,9.2,9.2,91,0.01,,BKN,0.18,0.0,WeatherDisplay:10.37,2013-09-01 03:37:00,
2013-08-31 23:42:00,69.1,66.4,29.84,SW,224,2.3,2.3,91,0.00,,BKN,0.18,0.0,WeatherDisplay:10.37,2013-09-01 03:42:00,
2013-08-31 23:47:00,68.6,66.2,29.84,South,190,3.4,3.4,92,0.00,,BKN,0.18,0.0,WeatherDisplay:10.37,2013-09-01 03:47:00,
2013-08-31 23:52:00,68.3,66.2,29.84,SSW,206,2.3,2.3,93,0.00,,BKN,0.18,0.0,WeatherDisplay:10.37,2013-09-01 03:52:00,
2013-08-31 23:57:00,68.0,65.9,29.84,West,260,6.9,6.9,93,0.00,,BKN,0.18,0.0,WeatherDisplay:10.37,2013-09-01 03:57:00,